createdAt,value
2019-04-28T00:00:08.564Z,8.10
2019-04-28T00:03:00.773Z,8.10
2019-04-28T00:05:52.443Z,8.20
2019-04-28T00:08:42.859Z,8.20
2019-04-28T00:11:33.443Z,8.30
2019-04-28T00:14:24.063Z,8.30
2019-04-28T00:17:14.705Z,8.40
2019-04-28T00:20:07.383Z,8.50
2019-04-28T00:23:07.130Z,8.60
2019-04-28T00:26:06.551Z,8.60
2019-04-28T00:28:57.104Z,8.80
2019-04-28T00:31:47.862Z,9.00
2019-04-28T00:34:38.806Z,9.30
2019-04-28T00:37:32.583Z,9.60
2019-04-28T00:40:23.423Z,9.80
2019-04-28T00:43:13.585Z,10.10
2019-04-28T00:46:05.751Z,10.30
2019-04-28T00:48:55.943Z,10.40
2019-04-28T00:51:46.478Z,10.60
2019-04-28T00:54:36.743Z,10.70
2019-04-28T00:57:26.803Z,10.90
2019-04-28T01:00:19.043Z,10.90
2019-04-28T01:03:09.332Z,10.90
2019-04-28T01:05:59.484Z,11.00
2019-04-28T01:08:49.224Z,10.90
2019-04-28T01:11:41.408Z,10.90
2019-04-28T01:14:31.763Z,10.90
2019-04-28T01:17:29.634Z,10.90
2019-04-28T01:20:21.119Z,10.80
2019-04-28T01:23:11.743Z,10.80
2019-04-28T01:26:01.697Z,10.80
2019-04-28T01:29:03.146Z,10.70
2019-04-28T01:32:30.263Z,10.70
2019-04-28T01:35:21.082Z,10.60
2019-04-28T01:38:12.286Z,10.50
2019-04-28T01:41:02.684Z,10.50
2019-04-28T01:43:52.764Z,10.40
2019-04-28T01:46:42.984Z,10.40
2019-04-28T01:49:32.756Z,10.30
2019-04-28T01:52:23.103Z,10.30
2019-04-28T01:55:13.474Z,10.20
2019-04-28T01:58:15.887Z,10.20
2019-04-28T02:01:07.283Z,10.10
2019-04-28T02:03:57.864Z,10.10
2019-04-28T02:06:49.694Z,10.00
2019-04-28T02:09:39.707Z,10.00
2019-04-28T02:12:30.623Z,9.90
2019-04-28T02:15:20.749Z,9.80
2019-04-28T02:18:10.782Z,9.70
2019-04-28T02:21:20.043Z,9.70
2019-04-28T02:24:27.805Z,9.60
2019-04-28T02:27:20.258Z,9.60
2019-04-28T02:30:11.791Z,9.50
2019-04-28T02:33:02.051Z,9.50
2019-04-28T02:35:52.750Z,9.40
2019-04-28T02:38:43.623Z,9.40
2019-04-28T02:41:34.513Z,9.40
2019-04-28T02:44:24.744Z,9.30
2019-04-28T02:47:16.508Z,9.30
2019-04-28T02:50:21.044Z,9.30
2019-04-28T02:53:21.043Z,9.20
2019-04-28T02:56:11.483Z,9.20
2019-04-28T02:59:01.845Z,9.20
2019-04-28T03:01:52.085Z,9.20
2019-04-28T03:04:42.563Z,9.10
2019-04-28T03:07:32.886Z,9.10
2019-04-28T03:10:22.880Z,9.00
2019-04-28T03:13:13.735Z,9.00
2019-04-28T03:16:03.404Z,9.00
2019-04-28T03:18:53.484Z,9.00
2019-04-28T03:21:44.085Z,9.00
2019-04-28T03:24:34.065Z,9.00
2019-04-28T03:27:44.724Z,9.00
2019-04-28T03:31:36.725Z,8.90
2019-04-28T03:34:04.236Z,8.90
2019-04-28T03:36:56.107Z,8.90
2019-04-28T03:39:46.244Z,8.80
2019-04-28T03:42:36.884Z,8.90
2019-04-28T03:45:32.054Z,8.90
2019-04-28T03:48:21.948Z,8.90
2019-04-28T03:51:13.440Z,8.90
2019-04-28T03:54:03.665Z,8.80
2019-04-28T03:56:54.485Z,8.90
2019-04-28T03:59:45.045Z,8.90
2019-04-28T04:02:34.804Z,9.00
2019-04-28T04:05:25.285Z,9.00
2019-04-28T04:08:15.019Z,8.90
2019-04-28T04:11:26.570Z,8.90
2019-04-28T04:14:41.424Z,9.00
2019-04-28T04:17:41.285Z,9.00
2019-04-28T04:20:31.825Z,9.10
2019-04-28T04:23:23.330Z,9.10
2019-04-28T04:26:14.478Z,9.10
2019-04-28T04:29:05.365Z,9.10
2019-04-28T04:32:10.022Z,9.20
2019-04-28T04:34:47.310Z,9.20
2019-04-28T04:37:37.442Z,9.30
2019-04-28T04:40:27.691Z,9.30
2019-04-28T04:43:17.548Z,9.40
2019-04-28T04:46:22.262Z,9.40
2019-04-28T04:49:14.420Z,9.40
2019-04-28T04:52:04.625Z,9.50
2019-04-28T04:54:54.289Z,9.50
2019-04-28T04:57:44.223Z,9.50
2019-04-28T05:00:44.563Z,9.50
2019-04-28T05:03:37.283Z,9.60
2019-04-28T05:06:39.961Z,9.60
2019-04-28T05:09:31.211Z,9.70
2019-04-28T05:12:21.432Z,9.70
2019-04-28T05:15:11.664Z,9.70
2019-04-28T05:18:02.125Z,9.80
2019-04-28T05:20:52.084Z,9.80
2019-04-28T05:24:03.924Z,9.90
2019-04-28T05:26:54.043Z,9.90
2019-04-28T05:29:44.763Z,10.00
2019-04-28T05:32:44.799Z,10.00
2019-04-28T05:35:26.523Z,10.00
2019-04-28T05:38:16.143Z,10.10
2019-04-28T05:41:06.217Z,10.10
2019-04-28T05:43:56.961Z,10.20
2019-04-28T05:46:47.126Z,10.20
2019-04-28T05:49:52.885Z,10.30
2019-04-28T05:53:01.643Z,10.30
2019-04-28T05:56:10.444Z,10.40
2019-04-28T05:59:04.232Z,10.50
2019-04-28T06:02:12.339Z,10.50
2019-04-28T06:05:03.644Z,10.60
2019-04-28T06:08:12.382Z,10.60
2019-04-28T06:11:20.961Z,10.70
2019-04-28T06:14:12.288Z,10.70
2019-04-28T06:17:04.052Z,10.80
2019-04-28T06:19:54.383Z,10.80
2019-04-28T06:22:44.543Z,10.90
2019-04-28T06:25:34.504Z,11.00
2019-04-28T06:28:24.584Z,11.10
2019-04-28T06:31:14.725Z,11.10
2019-04-28T06:34:04.560Z,11.10
2019-04-28T06:36:54.803Z,11.10
2019-04-28T06:39:47.226Z,11.00
2019-04-28T06:42:35.892Z,11.10
2019-04-28T06:45:26.389Z,11.10
2019-04-28T06:48:16.924Z,11.10
2019-04-28T06:51:08.824Z,11.20
2019-04-28T06:54:00.083Z,11.20
2019-04-28T06:56:49.971Z,11.20
2019-04-28T06:59:39.860Z,11.20
2019-04-28T07:02:30.204Z,11.30
2019-04-28T07:05:21.043Z,11.30
2019-04-28T07:08:13.816Z,11.40
2019-04-28T07:11:02.492Z,11.40
2019-04-28T07:13:52.783Z,11.40
2019-04-28T07:16:43.710Z,11.40
2019-04-28T07:19:33.526Z,11.50
2019-04-28T07:22:26.345Z,11.60
2019-04-28T07:25:16.242Z,11.70
2019-04-28T07:28:07.502Z,11.90
2019-04-28T07:30:58.663Z,11.80
2019-04-28T07:33:48.883Z,11.80
2019-04-28T07:36:39.123Z,11.80
2019-04-28T07:39:28.823Z,11.80
2019-04-28T07:42:19.283Z,11.90
2019-04-28T07:45:09.883Z,12.00
2019-04-28T07:48:00.087Z,12.00
2019-04-28T07:50:49.972Z,12.00
2019-04-28T07:53:53.797Z,12.10
2019-04-28T07:56:44.083Z,12.10
2019-04-28T07:59:33.681Z,12.10
2019-04-28T08:02:23.224Z,12.20
2019-04-28T08:05:13.577Z,12.50
2019-04-28T08:08:03.632Z,12.60
2019-04-28T08:10:54.383Z,12.90
2019-04-28T08:13:44.541Z,13.00
2019-04-28T08:16:34.323Z,13.00
2019-04-28T08:19:24.243Z,12.80
2019-04-28T08:22:15.565Z,12.80
2019-04-28T08:25:05.690Z,12.90
2019-04-28T08:27:55.123Z,12.80
2019-04-28T08:30:44.652Z,12.80
2019-04-28T08:33:38.703Z,13.00
2019-04-28T08:36:29.203Z,13.10
2019-04-28T08:39:23.146Z,13.20
2019-04-28T08:42:11.692Z,13.40
2019-04-28T08:45:03.524Z,13.70
2019-04-28T08:47:53.683Z,14.10
2019-04-28T08:50:43.343Z,15.00
2019-04-28T08:53:33.419Z,16.40
2019-04-28T08:56:23.495Z,17.10
2019-04-28T08:59:13.811Z,18.50
2019-04-28T09:02:03.968Z,19.50
2019-04-28T09:04:53.745Z,20.60
2019-04-28T09:07:44.406Z,21.30
2019-04-28T09:10:34.163Z,20.40
2019-04-28T09:13:24.530Z,18.60
2019-04-28T09:16:14.245Z,18.80
2019-04-28T09:19:04.323Z,19.40
2019-04-28T09:21:54.802Z,20.30
2019-04-28T09:24:44.943Z,21.00
2019-04-28T09:27:36.083Z,20.60
2019-04-28T09:30:26.823Z,20.90
2019-04-28T09:33:16.904Z,21.50
2019-04-28T09:36:07.127Z,21.50
2019-04-28T09:38:57.882Z,21.90
2019-04-28T09:42:06.804Z,21.80
2019-04-28T09:44:57.583Z,21.10
2019-04-28T09:47:48.703Z,20.20
2019-04-28T09:50:39.484Z,19.60
2019-04-28T09:53:30.242Z,19.00
2019-04-28T09:56:20.244Z,18.60
2019-04-28T09:59:11.770Z,18.30
2019-04-28T10:02:02.134Z,18.20
2019-04-28T10:04:52.364Z,18.30
2019-04-28T10:07:43.123Z,18.50
2019-04-28T10:10:33.583Z,18.80
2019-04-28T10:13:24.104Z,19.40
2019-04-28T10:16:13.842Z,19.70
2019-04-28T10:19:04.044Z,20.50
2019-04-28T10:21:54.048Z,21.90
2019-04-28T10:24:44.162Z,22.90
2019-04-28T10:27:34.504Z,23.30
2019-04-28T10:30:24.502Z,23.10
2019-04-28T10:33:14.383Z,23.90
2019-04-28T10:36:05.203Z,24.50
2019-04-28T10:38:56.963Z,25.20
2019-04-28T10:41:46.644Z,25.90
2019-04-28T10:44:40.427Z,27.00
2019-04-28T10:47:30.784Z,27.10
2019-04-28T10:50:22.023Z,27.30
2019-04-28T10:53:11.543Z,27.70
2019-04-28T10:56:01.310Z,28.00
2019-04-28T10:58:53.156Z,28.20
2019-04-28T11:01:43.773Z,28.30
2019-04-28T11:05:08.150Z,27.60
2019-04-28T11:07:52.403Z,27.30
2019-04-28T11:10:43.527Z,27.30
2019-04-28T11:13:33.492Z,27.30
2019-04-28T11:16:32.726Z,27.40
2019-04-28T11:19:22.706Z,27.20
2019-04-28T11:22:13.703Z,27.20
2019-04-28T11:25:04.407Z,27.00
2019-04-28T11:27:55.567Z,27.00
2019-04-28T11:30:57.863Z,27.20
2019-04-28T11:34:03.924Z,27.10
2019-04-28T11:36:54.143Z,26.80
2019-04-28T11:39:44.574Z,25.80
2019-04-28T11:42:34.283Z,25.00
2019-04-28T11:45:25.204Z,24.80
2019-04-28T11:48:15.409Z,24.70
2019-04-28T11:51:06.324Z,25.00
2019-04-28T11:53:57.103Z,25.90
2019-04-28T11:56:47.444Z,26.80
2019-04-28T11:59:38.343Z,27.70
2019-04-28T12:02:28.105Z,27.90
2019-04-28T12:05:19.787Z,28.20
2019-04-28T12:08:10.324Z,28.80
2019-04-28T12:11:27.923Z,28.80
2019-04-28T12:14:31.877Z,28.90
2019-04-28T12:17:40.664Z,29.20
2019-04-28T12:20:31.143Z,29.30
2019-04-28T12:23:21.402Z,29.90
2019-04-28T12:26:11.683Z,29.60
2019-04-28T12:29:02.743Z,29.20
2019-04-28T12:31:53.384Z,29.20
2019-04-28T12:34:43.704Z,29.80
2019-04-28T12:37:33.884Z,30.00
2019-04-28T12:40:24.563Z,29.50
2019-04-28T12:43:15.023Z,29.70
2019-04-28T12:46:05.543Z,29.70
2019-04-28T12:48:58.863Z,29.50
2019-04-28T12:51:49.844Z,29.70
2019-04-28T12:54:40.763Z,29.90
2019-04-28T12:57:30.963Z,29.80
2019-04-28T13:00:39.286Z,28.90
2019-04-28T13:03:51.363Z,29.00
2019-04-28T13:06:43.386Z,28.80
2019-04-28T13:09:33.744Z,28.90
2019-04-28T13:12:24.104Z,28.70
2019-04-28T13:15:13.868Z,28.70
2019-04-28T13:18:04.103Z,28.40
2019-04-28T13:20:54.843Z,28.10
2019-04-28T13:23:45.362Z,27.40
2019-04-28T13:26:35.303Z,26.70
2019-04-28T13:29:24.927Z,26.40
2019-04-28T13:32:15.287Z,26.70
2019-04-28T13:35:06.333Z,26.80
2019-04-28T13:37:56.198Z,26.90
2019-04-28T13:40:47.426Z,27.40
2019-04-28T13:43:37.545Z,27.90
2019-04-28T13:46:27.544Z,28.60
2019-04-28T13:49:18.503Z,29.20
2019-04-28T13:52:09.113Z,29.50
2019-04-28T13:55:10.236Z,29.60
2019-04-28T13:58:01.228Z,29.70
2019-04-28T14:01:18.783Z,29.20
2019-04-28T14:04:26.463Z,28.20
2019-04-28T14:07:16.607Z,28.10
2019-04-28T14:10:07.844Z,27.70
2019-04-28T14:12:57.864Z,28.10
2019-04-28T14:15:48.498Z,28.20
2019-04-28T14:18:38.498Z,28.10
2019-04-28T14:21:27.843Z,27.40
2019-04-28T14:24:19.888Z,27.00
2019-04-28T14:27:10.206Z,26.80
2019-04-28T14:29:59.883Z,26.50
2019-04-28T14:32:50.665Z,26.00
2019-04-28T14:35:41.943Z,25.90
2019-04-28T14:38:32.403Z,26.80
2019-04-28T14:41:23.440Z,27.70
2019-04-28T14:44:13.687Z,28.60
2019-04-28T14:47:04.035Z,29.90
2019-04-28T14:49:54.316Z,30.90
2019-04-28T14:52:44.884Z,31.10
2019-04-28T14:55:36.754Z,31.50
2019-04-28T14:58:26.663Z,31.90
2019-04-28T15:01:38.645Z,32.20
2019-04-28T15:04:50.194Z,32.80
2019-04-28T15:07:56.968Z,32.90
2019-04-28T15:11:15.205Z,33.30
2019-04-28T15:14:05.863Z,32.80
2019-04-28T15:16:56.103Z,32.70
2019-04-28T15:19:46.364Z,32.20
2019-04-28T15:22:37.244Z,31.90
2019-04-28T15:25:27.563Z,31.70
2019-04-28T15:28:18.345Z,31.50
2019-04-28T15:31:09.164Z,31.80
2019-04-28T15:33:59.544Z,31.90
2019-04-28T15:36:50.367Z,31.90
2019-04-28T15:39:40.373Z,31.60
2019-04-28T15:42:31.010Z,30.90
2019-04-28T15:45:21.403Z,30.50
2019-04-28T15:48:11.589Z,29.90
2019-04-28T15:51:01.724Z,29.90
2019-04-28T15:53:51.249Z,29.80
2019-04-28T15:56:49.083Z,29.60
2019-04-28T15:59:39.284Z,29.10
2019-04-28T16:02:30.483Z,28.80
2019-04-28T16:05:19.911Z,28.50
2019-04-28T16:08:11.043Z,28.80
2019-04-28T16:11:01.385Z,29.00
2019-04-28T16:13:51.603Z,29.00
2019-04-28T16:16:42.531Z,29.40
2019-04-28T16:19:33.223Z,30.00
2019-04-28T16:22:24.174Z,29.50
2019-04-28T16:25:14.243Z,28.90
2019-04-28T16:28:03.924Z,28.40
2019-04-28T16:30:54.323Z,28.00
2019-04-28T16:33:45.222Z,27.10
2019-04-28T16:36:35.608Z,25.60
2019-04-28T16:39:26.585Z,23.80
2019-04-28T16:42:16.878Z,22.50
2019-04-28T16:45:08.806Z,21.60
2019-04-28T16:47:58.508Z,20.90
2019-04-28T16:50:48.412Z,20.30
2019-04-28T16:53:38.783Z,19.70
2019-04-28T16:56:38.827Z,19.30
2019-04-28T16:59:46.642Z,18.90
2019-04-28T17:02:45.303Z,18.50
2019-04-28T17:05:36.148Z,18.10
2019-04-28T17:08:26.924Z,18.10
2019-04-28T17:11:17.003Z,17.90
2019-04-28T17:14:08.804Z,17.70
2019-04-28T17:16:59.643Z,17.60
2019-04-28T17:19:49.643Z,17.30
2019-04-28T17:22:39.762Z,16.90
2019-04-28T17:25:29.724Z,16.30
2019-04-28T17:28:20.563Z,15.90
2019-04-28T17:31:12.562Z,15.50
2019-04-28T17:34:02.966Z,15.10
2019-04-28T17:36:53.563Z,14.90
2019-04-28T17:39:44.742Z,14.60
2019-04-28T17:42:35.252Z,14.50
2019-04-28T17:45:27.125Z,14.30
2019-04-28T17:48:22.266Z,14.20
2019-04-28T17:51:13.094Z,14.00
2019-04-28T17:54:02.963Z,13.80
2019-04-28T17:56:53.527Z,13.70
2019-04-28T17:59:43.898Z,13.50
2019-04-28T18:02:51.964Z,13.40
2019-04-28T18:05:47.742Z,13.20
2019-04-28T18:08:38.158Z,13.00
2019-04-28T18:11:28.829Z,12.90
2019-04-28T18:14:19.911Z,12.70
2019-04-28T18:17:27.885Z,12.60
2019-04-28T18:20:20.525Z,12.50
2019-04-28T18:23:17.582Z,12.40
2019-04-28T18:26:11.644Z,12.30
2019-04-28T18:29:03.144Z,12.20
2019-04-28T18:32:16.544Z,12.00
2019-04-28T18:35:17.003Z,11.90
2019-04-28T18:38:16.643Z,11.80
2019-04-28T18:41:24.644Z,11.70
2019-04-28T18:44:20.083Z,11.70
2019-04-28T18:47:10.803Z,11.60
2019-04-28T18:50:01.983Z,11.50
2019-04-28T18:52:55.485Z,11.50
2019-04-28T18:55:46.644Z,11.40
2019-04-28T18:58:41.126Z,11.30
2019-04-28T19:01:52.803Z,11.30
2019-04-28T19:04:45.113Z,11.30
2019-04-28T19:07:52.596Z,11.20
2019-04-28T19:10:51.963Z,11.20
2019-04-28T19:13:50.972Z,11.10
2019-04-28T19:17:06.984Z,11.00
2019-04-28T19:19:58.844Z,11.00
2019-04-28T19:22:50.087Z,10.90
2019-04-28T19:25:41.324Z,10.80
2019-04-28T19:28:38.861Z,10.70
2019-04-28T19:31:48.011Z,10.70
2019-04-28T19:34:38.537Z,10.60
2019-04-28T19:37:29.383Z,10.50
2019-04-28T19:40:19.921Z,10.40
2019-04-28T19:43:10.565Z,10.30
2019-04-28T19:46:02.647Z,10.20
2019-04-28T19:48:53.842Z,10.10
2019-04-28T19:51:45.144Z,10.10
2019-04-28T19:54:40.164Z,10.00
2019-04-28T19:57:38.192Z,9.90
2019-04-28T20:00:38.495Z,9.90
2019-04-28T20:03:30.223Z,9.80
2019-04-28T20:06:20.484Z,9.80
2019-04-28T20:09:12.148Z,9.80
2019-04-28T20:12:02.964Z,9.80
2019-04-28T20:14:54.487Z,9.70
2019-04-28T20:17:45.185Z,9.70
2019-04-28T20:20:35.643Z,9.70
2019-04-28T20:23:27.379Z,9.70
2019-04-28T20:26:17.683Z,9.70
2019-04-28T20:29:07.924Z,9.60
2019-04-28T20:31:57.868Z,9.60
2019-04-28T20:34:47.806Z,9.60
2019-04-28T20:37:41.964Z,9.50
2019-04-28T20:40:41.044Z,9.50
2019-04-28T20:43:31.626Z,9.40
2019-04-28T20:46:21.685Z,9.40
2019-04-28T20:49:11.763Z,9.40
2019-04-28T20:52:02.537Z,9.30
2019-04-28T20:54:52.696Z,9.30
2019-04-28T20:57:44.943Z,9.30
2019-04-28T21:00:36.588Z,9.30
2019-04-28T21:03:26.543Z,9.20
2019-04-28T21:06:16.783Z,9.20
2019-04-28T21:09:09.707Z,9.10
2019-04-28T21:12:00.523Z,9.10
2019-04-28T21:14:50.219Z,9.10
2019-04-28T21:17:40.530Z,9.10
2019-04-28T21:20:30.804Z,9.10
2019-04-28T21:23:21.127Z,9.00
2019-04-28T21:26:13.224Z,9.00
2019-04-28T21:29:03.763Z,9.00
2019-04-28T21:31:54.423Z,8.90
2019-04-28T21:34:44.606Z,8.90
2019-04-28T21:37:34.556Z,8.80
2019-04-28T21:40:25.722Z,8.80
2019-04-28T21:43:30.844Z,8.70
2019-04-28T21:46:44.998Z,8.60
2019-04-28T21:49:39.075Z,8.60
2019-04-28T21:52:41.444Z,8.50
2019-04-28T21:55:31.283Z,8.50
2019-04-28T21:58:32.590Z,8.40
2019-04-28T22:01:17.206Z,8.40
2019-04-28T22:04:07.504Z,8.30
2019-04-28T22:06:58.302Z,8.30
2019-04-28T22:09:49.689Z,8.30
2019-04-28T22:12:40.547Z,8.30
2019-04-28T22:15:30.403Z,8.30
2019-04-28T22:18:20.825Z,8.20
2019-04-28T22:21:11.443Z,8.20
2019-04-28T22:24:15.603Z,8.20
2019-04-28T22:27:05.925Z,8.20
2019-04-28T22:29:55.783Z,8.20
2019-04-28T22:32:46.483Z,8.20
2019-04-28T22:35:36.963Z,8.20
2019-04-28T22:38:27.384Z,8.20
2019-04-28T22:41:17.466Z,8.30
2019-04-28T22:44:08.083Z,8.30
2019-04-28T22:46:58.546Z,8.30
2019-04-28T22:49:47.723Z,8.40
2019-04-28T22:52:38.043Z,8.40
2019-04-28T22:55:28.823Z,8.50
2019-04-28T22:58:25.043Z,8.50
2019-04-28T23:01:19.482Z,8.60
2019-04-28T23:04:31.212Z,8.60
2019-04-28T23:07:21.523Z,8.70
2019-04-28T23:10:12.103Z,8.80
2019-04-28T23:13:02.492Z,8.80
2019-04-28T23:15:52.324Z,8.90
2019-04-28T23:18:42.769Z,8.90
2019-04-28T23:21:54.663Z,9.00
2019-04-28T23:24:44.963Z,9.10
2019-04-28T23:27:35.167Z,9.20
2019-04-28T23:30:41.063Z,9.30
2019-04-28T23:33:31.027Z,9.40
2019-04-28T23:36:21.543Z,9.50
2019-04-28T23:39:12.263Z,9.60
2019-04-28T23:42:21.523Z,9.70
2019-04-28T23:45:12.402Z,9.80
2019-04-28T23:48:02.369Z,9.80
2019-04-28T23:51:08.225Z,9.90
2019-04-28T23:54:01.709Z,9.90
2019-04-28T23:56:52.563Z,9.90
2019-04-28T23:59:42.803Z,10.00
